Time;durP1;ratioP1;P1;durP2;ratioP2;P2;SDS_P1;SDS_P2;PMS_P1;PMS_P2;Temp;Humidity;BMP_temperature;BMP_pressure;BME280_temperature;BME280_humidity;BME280_pressure;Samples;Min_cycle;Max_cycle;Signal;HPM_P1;HPM_P2
2021/04/26 00:00:00;;;;;;;3.05;1.52;;;18.50;49.00;18.70;99157.00;;;;339672;28;96265;-91
2021/04/26 00:00:14;;;;;;;3.58;1.60;;;18.50;49.00;18.60;99165.00;;;;341821;28;84789;-92
2021/04/26 00:00:28;;;;;;;3.72;1.40;;;18.50;49.20;18.60;99157.00;;;;339624;28;97873;-92
2021/04/26 00:00:39;;;;;;;4.53;1.38;;;18.50;49.20;18.50;99159.00;;;;343160;28;83866;-92
2021/04/26 00:00:51;;;;;;;4.32;1.33;;;18.50;49.20;18.40;99160.00;;;;341097;28;96381;-92
2021/04/26 00:01:04;;;;;;;3.47;1.23;;;18.50;49.20;18.40;99154.00;;;;339083;28;83652;-92
2021/04/26 00:01:15;;;;;;;2.97;1.13;;;18.50;49.20;18.60;99164.00;;;;341222;28;95990;-92
2021/04/26 00:01:27;;;;;;;3.80;1.48;;;18.60;49.30;18.60;99161.00;;;;341776;28;84593;-92
2021/04/26 00:01:38;;;;;;;3.53;1.40;;;18.50;49.30;18.70;99155.00;;;;341115;28;93460;-92
2021/04/26 00:01:50;;;;;;;3.95;1.38;;;18.50;49.40;18.70;99146.00;;;;343090;28;85272;-91
2021/04/26 00:02:03;;;;;;;4.78;1.55;;;18.50;49.50;18.70;99155.00;;;;339931;28;97049;-93
2021/04/26 00:02:14;;;;;;;4.63;1.60;;;18.60;49.70;18.60;99154.00;;;;339943;28;84345;-93
2021/04/26 00:02:26;;;;;;;3.00;1.58;;;18.60;49.50;18.70;99158.00;;;;338228;28;97775;-93
2021/04/26 00:02:37;;;;;;;2.92;1.65;;;18.60;49.50;18.60;99156.00;;;;341533;28;85026;-90
2021/04/26 00:02:48;;;;;;;3.42;1.80;;;18.60;49.40;18.60;99149.00;;;;339616;28;96178;-91
2021/04/26 00:03:00;;;;;;;3.58;1.90;;;18.60;49.40;18.70;99152.00;;;;341590;28;83922;-92
2021/04/26 00:03:13;;;;;;;2.75;1.40;;;18.60;49.30;18.60;99157.00;;;;339898;28;96372;-92
2021/04/26 00:03:24;;;;;;;2.85;1.48;;;18.60;49.40;18.60;99150.00;;;;341831;28;83928;-92
2021/04/26 00:03:35;;;;;;;2.75;1.40;;;18.60;49.30;18.60;99155.00;;;;339794;28;97714;-93
2021/04/26 00:03:47;;;;;;;2.83;1.27;;;18.60;49.20;18.60;99149.00;;;;339342;28;82426;-93
2021/04/26 00:04:01;;;;;;;2.25;1.20;;;18.70;49.30;18.70;99147.00;;;;341263;28;96824;-92
2021/04/26 00:04:12;;;;;;;2.72;1.30;;;18.70;49.30;18.60;99147.00;;;;339299;28;83589;-93
2021/04/26 00:04:24;;;;;;;3.47;1.38;;;18.70;49.30;18.60;99154.00;;;;343835;28;96778;-92
2021/04/26 00:04:35;;;;;;;3.45;1.20;;;18.70;49.50;18.70;99155.00;;;;339202;28;85080;-92
2021/04/26 00:04:47;;;;;;;3.13;1.30;;;18.70;49.40;18.70;99142.00;;;;339899;28;97118;-92
2021/04/26 00:04:58;;;;;;;2.75;1.40;;;18.60;49.40;18.70;99148.00;;;;341638;28;83580;-92
2021/04/26 00:05:12;;;;;;;2.45;1.27;;;18.70;49.40;18.70;99150.00;;;;340335;28;95912;-92
2021/04/26 00:05:23;;;;;;;2.75;1.10;;;18.70;49.50;18.80;99144.00;;;;341806;28;84609;-92
2021/04/26 00:05:35;;;;;;;4.20;1.63;;;18.70;49.40;18.80;99147.00;;;;340579;28;97364;-92
2021/04/26 00:05:47;;;;;;;3.97;1.83;;;18.70;49.50;18.80;99145.00;;;;344489;28;84196;-92
2021/04/26 00:05:58;;;;;;;3.85;1.85;;;18.70;49.40;18.60;99145.00;;;;342500;28;95516;-92
2021/04/26 00:06:10;;;;;;;3.50;1.70;;;18.70;49.30;18.40;99153.00;;;;341715;28;84073;-92
2021/04/26 00:06:21;;;;;;;3.05;1.35;;;18.70;49.40;18.50;99147.00;;;;340951;28;96510;-91
2021/04/26 00:06:33;;;;;;;3.20;1.33;;;18.70;49.20;18.30;99147.00;;;;341778;28;83648;-92
2021/04/26 00:06:45;;;;;;;2.75;1.05;;;18.70;49.20;18.40;99144.00;;;;339579;28;93465;-92
2021/04/26 00:06:56;;;;;;;2.88;1.15;;;18.70;49.30;18.50;99148.00;;;;340468;28;83778;-93
2021/04/26 00:07:07;;;;;;;3.78;1.42;;;18.70;49.30;18.60;99142.00;;;;339782;28;96900;-92
2021/04/26 00:07:19;;;;;;;4.50;1.73;;;18.60;49.70;18.50;99148.00;;;;340524;28;83891;-92
2021/04/26 00:07:30;;;;;;;5.43;1.90;;;18.60;49.10;18.40;99143.00;;;;342377;28;95978;-92
2021/04/26 00:07:42;;;;;;;5.55;2.00;;;18.60;49.20;18.50;99148.00;;;;341736;28;83416;-92
2021/04/26 00:07:54;;;;;;;4.30;1.67;;;18.70;49.20;18.60;99143.00;;;;343751;28;97031;-91
2021/04/26 00:08:06;;;;;;;2.33;1.45;;;18.70;49.20;18.60;99145.00;;;;340204;28;83420;-93
2021/04/26 00:08:17;;;;;;;2.45;1.38;;;18.70;49.40;18.50;99142.00;;;;338155;28;98743;-92
2021/04/26 00:08:29;;;;;;;2.28;1.40;;;18.60;49.50;18.20;99146.00;;;;340387;28;84511;-92
2021/04/26 00:08:40;;;;;;;2.72;1.35;;;18.60;49.40;18.20;99142.00;;;;342444;28;96253;-92
2021/04/26 00:08:51;;;;;;;2.90;1.23;;;18.60;49.40;18.30;99145.00;;;;341788;28;84009;-92
2021/04/26 00:09:04;;;;;;;5.90;1.40;;;18.60;49.30;18.30;99142.00;;;;340455;28;96184;-91
2021/04/26 00:09:15;;;;;;;5.43;1.40;;;18.60;49.60;18.40;99141.00;;;;338902;28;84305;-92
2021/04/26 00:09:26;;;;;;;6.07;1.50;;;18.60;49.50;18.50;99136.00;;;;338361;28;95983;-92
2021/04/26 00:09:38;;;;;;;3.45;1.40;;;18.60;49.60;18.60;99140.00;;;;340367;28;83646;-92
2021/04/26 00:09:49;;;;;;;3.63;1.48;;;18.60;49.40;18.60;99146.00;;;;338476;28;94424;-91
2021/04/26 00:10:01;;;;;;;2.45;1.45;;;18.50;49.50;18.50;99139.00;;;;339217;28;83326;-92
2021/04/26 00:10:13;;;;;;;2.92;1.60;;;18.50;49.50;18.50;99148.00;;;;339670;28;98063;-92
2021/04/26 00:10:25;;;;;;;3.63;1.67;;;18.60;49.40;18.50;99133.00;;;;339249;28;83855;-93
2021/04/26 00:10:37;;;;;;;3.72;1.60;;;18.50;49.30;18.50;99127.00;;;;339722;28;96524;-91
2021/04/26 00:10:48;;;;;;;3.45;1.60;;;18.60;49.40;18.50;99133.00;;;;339270;28;84154;-92
2021/04/26 00:11:00;;;;;;;3.28;1.90;;;18.60;49.40;18.60;99142.00;;;;338470;28;95629;-92
2021/04/26 00:11:11;;;;;;;3.95;1.63;;;18.60;49.40;18.60;99127.00;;;;341805;28;84037;-93
2021/04/26 00:11:23;;;;;;;3.42;1.23;;;18.60;49.40;18.60;99134.00;;;;339761;28;96261;-92
2021/04/26 00:11:34;;;;;;;3.33;1.25;;;18.60;49.40;18.70;99139.00;;;;341848;28;83942;-91
2021/04/26 00:11:45;;;;;;;3.70;1.30;;;18.50;49.50;18.50;99132.00;;;;339629;28;96339;-92
2021/04/26 00:11:57;;;;;;;3.75;1.50;;;18.60;49.50;18.60;99136.00;;;;343291;28;83355;-92
2021/04/26 00:12:08;;;;;;;2.97;1.50;;;18.50;49.40;18.70;99141.00;;;;342575;28;96699;-92
2021/04/26 00:12:20;;;;;;;3.13;1.50;;;18.50;49.50;18.70;99134.00;;;;343178;28;83479;-91
2021/04/26 00:12:32;;;;;;;4.05;1.27;;;18.60;49.60;18.70;99143.00;;;;339806;28;97255;-92
2021/04/26 00:12:55;;;;;;;3.20;1.48;;;18.60;49.60;18.70;99139.00;;;;340394;28;85103;-92
2021/04/26 00:13:27;;;;;;;3.50;1.60;;;18.60;49.60;18.60;99138.00;;;;339566;28;94613;-92
2021/04/26 00:13:38;;;;;;;3.63;1.65;;;18.60;49.60;18.60;99139.00;;;;340455;28;85254;-92
2021/04/26 00:13:49;;;;;;;3.42;1.60;;;18.60;49.50;18.60;99140.00;;;;339670;28;96284;-92
2021/04/26 00:14:05;;;;;;;3.17;1.60;;;18.60;49.40;18.60;99135.00;;;;343852;28;84282;-92
2021/04/26 00:14:17;;;;;;;2.90;1.70;;;18.60;49.40;18.60;99141.00;;;;340157;28;97321;-92
2021/04/26 00:14:28;;;;;;;2.70;1.50;;;18.60;49.50;18.60;99144.00;;;;340323;28;85466;-92
2021/04/26 00:14:40;;;;;;;3.33;1.40;;;18.60;49.50;18.60;99137.00;;;;340924;28;96636;-92
2021/04/26 00:14:51;;;;;;;4.70;1.73;;;18.60;49.60;18.70;99139.00;;;;337488;28;83809;-92
2021/04/26 00:15:08;;;;;;;5.07;1.90;;;18.60;49.50;18.60;99140.00;;;;338603;28;96653;-92
2021/04/26 00:15:25;;;;;;;3.80;1.42;;;18.60;49.50;18.60;99141.00;;;;343170;28;84132;-92
2021/04/26 00:15:36;;;;;;;3.42;1.30;;;18.70;49.40;18.70;99133.00;;;;338276;28;94026;-92
2021/04/26 00:15:48;;;;;;;3.60;1.48;;;18.70;49.50;18.70;99138.00;;;;340445;28;84030;-92
2021/04/26 00:15:59;;;;;;;3.70;1.60;;;18.70;49.50;18.50;99138.00;;;;338382;28;97381;-93
2021/04/26 00:16:11;;;;;;;4.22;1.65;;;18.70;49.70;18.60;99142.00;;;;341814;28;83765;-92
2021/04/26 00:16:22;;;;;;;3.72;1.27;;;18.70;49.60;18.60;99144.00;;;;339646;28;96810;-92
2021/04/26 00:16:34;;;;;;;4.25;1.25;;;18.70;49.60;18.50;99139.00;;;;339049;28;83278;-91
2021/04/26 00:16:46;;;;;;;3.00;1.10;;;18.60;49.50;18.50;99136.00;;;;342271;28;97731;-92
2021/04/26 00:16:57;;;;;;;2.75;1.20;;;18.60;49.50;18.50;99143.00;;;;341422;28;84987;-92
2021/04/26 00:17:09;;;;;;;2.08;1.08;;;18.60;49.40;18.60;99145.00;;;;339526;28;96887;-92
2021/04/26 00:17:20;;;;;;;3.97;1.60;;;18.60;49.30;18.70;99135.00;;;;339193;28;83613;-91
2021/04/26 00:17:32;;;;;;;5.13;1.88;;;18.60;49.40;18.60;99139.00;;;;341005;28;96987;-91
2021/04/26 00:17:44;;;;;;;4.60;2.00;;;18.60;49.70;18.60;99142.00;;;;341560;28;85086;-92
2021/04/26 00:17:55;;;;;;;4.85;1.83;;;18.60;49.50;18.60;99144.00;;;;341066;28;96959;-91
2021/04/26 00:18:07;;;;;;;4.88;1.80;;;18.60;49.60;18.60;99147.00;;;;341301;28;84269;-93
2021/04/26 00:18:18;;;;;;;5.57;1.85;;;18.60;49.50;18.60;99137.00;;;;340992;28;96710;-93
2021/04/26 00:18:30;;;;;;;6.10;1.63;;;18.60;49.50;18.50;99144.00;;;;337840;28;83216;-92
2021/04/26 00:18:41;;;;;;;4.30;1.50;;;18.60;49.70;18.50;99139.00;;;;339663;28;98283;-91
2021/04/26 00:18:52;;;;;;;4.63;1.55;;;18.60;49.60;18.50;99149.00;;;;337739;28;84352;-92
2021/04/26 00:19:04;;;;;;;4.50;1.85;;;18.60;49.60;18.50;99135.00;;;;340972;28;95934;-92
2021/04/26 00:19:15;;;;;;;5.68;2.00;;;18.60;49.60;18.60;99147.00;;;;340437;28;84102;-91
2021/04/26 00:19:27;;;;;;;5.15;1.80;;;18.60;49.40;18.60;99151.00;;;;339749;28;96744;-91
2021/04/26 00:19:38;;;;;;;5.07;2.05;;;18.60;49.50;18.60;99145.00;;;;340375;28;83698;-92
2021/04/26 00:19:50;;;;;;;4.70;2.15;;;18.60;49.50;18.40;99147.00;;;;342222;28;95020;-92
2021/04/26 00:20:04;;;;;;;3.72;1.75;;;18.60;49.60;18.50;99143.00;;;;339312;28;83426;-92
2021/04/26 00:20:18;;;;;;;3.00;1.17;;;18.60;49.80;18.70;99149.00;;;;341047;28;96756;-92
2021/04/26 00:20:30;;;;;;;3.30;1.23;;;18.60;49.70;18.60;99141.00;;;;338924;28;83557;-91
2021/04/26 00:20:42;;;;;;;3.20;1.45;;;18.60;49.80;18.60;99146.00;;;;339603;28;97798;-92
2021/04/26 00:20:54;;;;;;;3.45;1.60;;;18.60;50.30;18.60;99143.00;;;;342922;28;84982;-91
2021/04/26 00:21:05;;;;;;;4.85;1.52;;;18.60;49.60;18.70;99147.00;;;;338919;28;96625;-92
2021/04/26 00:21:17;;;;;;;6.20;1.75;;;18.60;49.70;18.70;99144.00;;;;337735;28;85271;-93
2021/04/26 00:21:28;;;;;;;6.60;1.88;;;18.60;49.60;18.70;99149.00;;;;341055;28;95313;-92
2021/04/26 00:21:39;;;;;;;4.07;1.67;;;18.60;49.70;18.70;99143.00;;;;338968;28;83395;-92
2021/04/26 00:21:51;;;;;;;3.60;1.55;;;18.60;49.70;18.70;99141.00;;;;339638;28;96316;-93
2021/04/26 00:22:02;;;;;;;3.28;1.65;;;18.60;49.80;18.70;99150.00;;;;340370;28;84993;-91
2021/04/26 00:22:13;;;;;;;4.68;2.10;;;18.60;49.90;18.80;99144.00;;;;342390;28;96581;-91
2021/04/26 00:22:25;;;;;;;5.10;2.00;;;18.60;49.70;18.70;99148.00;;;;340488;28;83162;-92
2021/04/26 00:22:37;;;;;;;4.53;1.67;;;18.60;49.70;18.60;99144.00;;;;339768;28;96869;-92
2021/04/26 00:22:48;;;;;;;4.72;1.48;;;18.60;49.60;18.70;99147.00;;;;341733;28;83387;-92
2021/04/26 00:23:01;;;;;;;4.93;1.67;;;18.60;49.50;18.70;99151.00;;;;341977;28;96922;-93
2021/04/26 00:23:12;;;;;;;5.85;2.10;;;18.60;49.50;18.70;99146.00;;;;340230;28;85207;-92
2021/04/26 00:23:23;;;;;;;4.38;1.83;;;18.60;49.40;18.70;99145.00;;;;341090;28;96539;-92
2021/04/26 00:23:35;;;;;;;3.13;1.33;;;18.60;49.50;18.70;99150.00;;;;341704;28;83546;-91
2021/04/26 00:23:46;;;;;;;3.88;1.35;;;18.60;49.60;18.70;99145.00;;;;340914;28;97254;-92
2021/04/26 00:23:59;;;;;;;5.72;1.70;;;18.60;49.50;18.80;99133.00;;;;340239;28;84914;-92
2021/04/26 00:24:10;;;;;;;5.18;1.80;;;18.70;49.80;18.80;99143.00;;;;338332;28;96765;-92
2021/04/26 00:24:22;;;;;;;3.22;1.50;;;18.70;49.70;18.80;99146.00;;;;340383;28;85209;-92
2021/04/26 00:24:34;;;;;;;2.53;1.40;;;18.70;49.60;18.80;99136.00;;;;339737;28;96615;-92
2021/04/26 00:24:45;;;;;;;2.30;1.50;;;18.70;49.60;18.80;99144.00;;;;339090;28;83760;-92
2021/04/26 00:24:57;;;;;;;2.50;1.70;;;18.70;49.60;18.80;99152.00;;;;341104;28;95071;-92
2021/04/26 00:25:09;;;;;;;4.20;1.73;;;18.70;50.30;18.80;99150.00;;;;339083;28;83634;-92
2021/04/26 00:25:20;;;;;;;4.47;1.80;;;18.70;49.70;18.80;99146.00;;;;340860;28;95923;-92
2021/04/26 00:25:32;;;;;;;4.80;1.83;;;18.70;49.60;18.80;99139.00;;;;340365;28;84853;-92
2021/04/26 00:25:44;;;;;;;3.25;1.65;;;18.70;49.60;18.80;99147.00;;;;339664;28;97049;-93
2021/04/26 00:25:55;;;;;;;3.40;1.50;;;18.70;49.50;18.70;99143.00;;;;341832;28;83087;-92
2021/04/26 00:26:06;;;;;;;3.30;1.70;;;18.70;49.40;18.70;99147.00;;;;341539;28;95908;-92
2021/04/26 00:26:18;;;;;;;3.20;1.75;;;18.70;49.40;18.60;99147.00;;;;340355;28;84268;-92
2021/04/26 00:26:29;;;;;;;3.30;1.77;;;18.70;49.40;18.50;99134.00;;;;341026;28;97870;-92
2021/04/26 00:26:41;;;;;;;3.42;1.73;;;18.70;49.50;18.30;99145.00;;;;337605;28;84655;-92
2021/04/26 00:26:52;;;;;;;4.13;1.75;;;18.70;49.80;18.50;99144.00;;;;340931;28;95342;-92
2021/04/26 00:27:04;;;;;;;4.25;1.60;;;18.70;49.80;18.60;99144.00;;;;340274;28;84011;-92
2021/04/26 00:27:16;;;;;;;3.28;1.30;;;18.70;49.70;18.70;99144.00;;;;338498;28;95319;-92
2021/04/26 00:27:27;;;;;;;3.60;1.40;;;18.70;49.60;18.40;99144.00;;;;341809;28;82968;-92
2021/04/26 00:27:38;;;;;;;3.50;1.42;;;18.70;50.00;18.30;99147.00;;;;340964;28;95797;-93
2021/04/26 00:27:50;;;;;;;3.58;1.75;;;18.60;50.20;18.20;99145.00;;;;341582;28;83857;-92
2021/04/26 00:28:02;;;;;;;3.63;1.70;;;18.60;50.10;18.20;99140.00;;;;341023;28;96348;-92
2021/04/26 00:28:13;;;;;;;2.67;1.45;;;18.60;50.00;18.40;99139.00;;;;340487;28;83586;-92
2021/04/26 00:28:25;;;;;;;3.40;1.30;;;18.60;50.00;18.50;99138.00;;;;340905;28;96482;-92
2021/04/26 00:28:36;;;;;;;3.53;1.20;;;18.60;50.00;18.50;99138.00;;;;340431;28;84269;-92
2021/04/26 00:28:47;;;;;;;3.22;1.42;;;18.60;50.00;18.60;99139.00;;;;342355;28;96228;-92
2021/04/26 00:28:59;;;;;;;2.67;1.45;;;18.60;50.10;18.50;99131.00;;;;338637;28;83347;-92
2021/04/26 00:29:10;;;;;;;3.33;1.70;;;18.60;50.00;18.50;99138.00;;;;341808;28;96612;-92
2021/04/26 00:29:22;;;;;;;3.53;1.45;;;18.60;49.90;18.40;99142.00;;;;341674;28;83974;-92
2021/04/26 00:29:33;;;;;;;2.95;1.30;;;18.60;50.30;18.40;99133.00;;;;340774;28;96695;-92
2021/04/26 00:29:45;;;;;;;2.40;1.23;;;18.60;49.60;18.20;99131.00;;;;341730;28;85267;-92
2021/04/26 00:29:56;;;;;;;2.17;1.40;;;18.60;49.60;18.30;99129.00;;;;340991;28;96045;-91
2021/04/26 00:30:11;;;;;;;2.05;1.30;;;18.50;49.50;18.30;99135.00;;;;339948;28;85070;-93
2021/04/26 00:30:24;;;;;;;3.00;1.10;;;18.50;49.90;18.40;99133.00;;;;340978;28;97791;-92
2021/04/26 00:30:35;;;;;;;3.45;1.30;;;18.50;50.10;18.50;99124.00;;;;341661;28;85465;-92
2021/04/26 00:30:47;;;;;;;3.33;1.50;;;18.60;50.00;18.50;99121.00;;;;338387;28;96770;-92
2021/04/26 00:30:58;;;;;;;2.78;1.52;;;18.60;49.90;18.50;99132.00;;;;341644;28;83899;-92
2021/04/26 00:31:09;;;;;;;3.13;1.42;;;18.60;49.90;18.50;99138.00;;;;339661;28;97209;-91
2021/04/26 00:31:21;;;;;;;2.83;1.20;;;18.50;49.80;18.40;99127.00;;;;339012;28;85389;-93
2021/04/26 00:31:33;;;;;;;3.70;1.00;;;18.50;49.90;18.50;99126.00;;;;339758;28;95907;-92
2021/04/26 00:31:44;;;;;;;4.50;1.45;;;18.50;49.80;18.60;99137.00;;;;341698;28;83949;-93
2021/04/26 00:31:56;;;;;;;4.07;1.65;;;18.50;49.70;18.50;99129.00;;;;339609;28;95544;-92
2021/04/26 00:32:07;;;;;;;4.93;1.60;;;18.50;49.80;18.50;99129.00;;;;340859;28;83650;-91
2021/04/26 00:32:19;;;;;;;4.57;1.50;;;18.50;49.80;18.60;99127.00;;;;339456;28;98158;-91
2021/04/26 00:32:31;;;;;;;4.57;1.48;;;18.50;49.70;18.60;99133.00;;;;341995;28;83998;-92
2021/04/26 00:32:42;;;;;;;2.95;1.25;;;18.60;49.80;18.60;99130.00;;;;341053;28;97178;-92
2021/04/26 00:32:54;;;;;;;2.63;1.20;;;18.60;49.90;18.50;99130.00;;;;338924;28;84622;-92
2021/04/26 00:33:06;;;;;;;3.47;1.40;;;18.60;49.80;18.60;99138.00;;;;338115;28;97047;-92
2021/04/26 00:33:17;;;;;;;3.75;1.38;;;18.60;49.80;18.30;99129.00;;;;341730;28;83935;-93
2021/04/26 00:33:29;;;;;;;3.22;1.33;;;18.60;49.80;18.10;99133.00;;;;341093;28;95784;-92
2021/04/26 00:33:40;;;;;;;3.33;1.30;;;18.50;49.80;18.10;99126.00;;;;340377;28;83799;-92
2021/04/26 00:33:52;;;;;;;3.03;1.30;;;18.50;49.90;18.30;99128.00;;;;340934;28;95948;-91
2021/04/26 00:34:05;;;;;;;3.28;1.27;;;18.50;50.00;18.20;99126.00;;;;340575;28;84509;-92
2021/04/26 00:34:16;;;;;;;3.70;1.27;;;18.40;50.10;18.00;99128.00;;;;338400;28;96804;-91
2021/04/26 00:34:28;;;;;;;4.50;1.27;;;18.40;50.20;18.30;99130.00;;;;340559;28;84089;-92
2021/04/26 00:34:39;;;;;;;4.57;1.25;;;18.40;50.10;18.30;99127.00;;;;339865;28;95987;-92
2021/04/26 00:34:51;;;;;;;4.18;1.42;;;18.40;50.10;18.30;99132.00;;;;340758;28;83424;-92
2021/04/26 00:35:04;;;;;;;5.00;1.50;;;18.40;50.10;18.20;99130.00;;;;339452;28;97044;-92
2021/04/26 00:35:16;;;;;;;4.40;1.50;;;18.40;50.20;18.20;99126.00;;;;340870;28;84458;-92
2021/04/26 00:35:27;;;;;;;2.92;1.45;;;18.40;50.10;18.30;99130.00;;;;339904;28;96162;-92
2021/04/26 00:35:39;;;;;;;3.03;1.33;;;18.40;50.00;18.20;99134.00;;;;339128;28;84509;-92
2021/04/26 00:35:51;;;;;;;3.17;1.10;;;18.40;50.10;18.30;99127.00;;;;341247;28;96482;-92
2021/04/26 00:36:02;;;;;;;3.08;1.20;;;18.40;50.20;18.20;99130.00;;;;341817;28;84834;-91
2021/04/26 00:36:14;;;;;;;2.75;1.10;;;18.40;50.30;18.20;99127.00;;;;342471;28;97921;-93
2021/04/26 00:36:25;;;;;;;3.58;1.23;;;18.30;50.30;18.10;99135.00;;;;342013;28;83665;-92
2021/04/26 00:36:36;;;;;;;3.80;1.45;;;18.40;50.50;18.20;99129.00;;;;341233;28;95954;-92
2021/04/26 00:36:48;;;;;;;3.17;1.60;;;18.30;50.30;18.30;99130.00;;;;339213;28;83352;-93
2021/04/26 00:36:59;;;;;;;3.20;1.50;;;18.30;50.20;18.10;99129.00;;;;339568;28;96897;-93
2021/04/26 00:37:11;;;;;;;3.17;1.60;;;18.30;50.30;18.20;99136.00;;;;341830;28;83363;-93
2021/04/26 00:37:22;;;;;;;2.40;1.45;;;18.30;50.20;18.10;99127.00;;;;341210;28;96805;-92
2021/04/26 00:37:34;;;;;;;3.80;1.65;;;18.30;50.20;18.20;99127.00;;;;340402;28;83898;-92
2021/04/26 00:37:46;;;;;;;3.80;1.50;;;18.30;50.10;18.00;99130.00;;;;342323;28;97865;-92
2021/04/26 00:37:58;;;;;;;3.33;1.40;;;18.30;50.20;18.00;99122.00;;;;341495;28;85124;-92
2021/04/26 00:38:09;;;;;;;2.90;1.38;;;18.30;50.20;18.00;99121.00;;;;342199;28;98129;-93
2021/04/26 00:38:20;;;;;;;2.70;1.33;;;18.30;50.20;17.90;99122.00;;;;342733;28;84425;-92
2021/04/26 00:38:32;;;;;;;2.78;1.45;;;18.30;50.30;18.00;99125.00;;;;339646;28;95665;-91
2021/04/26 00:38:43;;;;;;;3.28;1.40;;;18.30;50.30;18.00;99132.00;;;;340459;28;84142;-93
2021/04/26 00:38:55;;;;;;;3.30;1.60;;;18.30;50.30;17.80;99128.00;;;;340915;28;96979;-92
2021/04/26 00:39:06;;;;;;;3.47;1.63;;;18.30;50.40;17.90;99139.00;;;;339805;28;84784;-92
2021/04/26 00:39:17;;;;;;;3.08;1.50;;;18.20;50.30;17.90;99123.00;;;;338374;28;96843;-92
2021/04/26 00:39:29;;;;;;;3.20;1.27;;;18.30;50.30;17.90;99120.00;;;;341774;28;85211;-92
2021/04/26 00:39:40;;;;;;;6.15;1.30;;;18.20;50.20;18.10;99122.00;;;;340674;28;96278;-92
2021/04/26 00:39:52;;;;;;;5.78;1.33;;;18.30;50.30;18.10;99129.00;;;;343079;28;84978;-92
2021/04/26 00:40:05;;;;;;;6.25;1.38;;;18.30;50.30;17.90;99126.00;;;;339574;28;96775;-92
2021/04/26 00:40:17;;;;;;;3.40;1.40;;;18.20;50.40;17.80;99137.00;;;;340487;28;83374;-91
2021/04/26 00:40:29;;;;;;;4.32;1.73;;;18.20;50.30;17.90;99137.00;;;;339659;28;96819;-92
2021/04/26 00:40:40;;;;;;;5.97;1.75;;;18.20;50.40;18.00;99132.00;;;;341827;28;84078;-92
2021/04/26 00:40:51;;;;;;;6.78;1.75;;;18.20;50.40;18.10;99124.00;;;;339705;28;96435;-91
2021/04/26 00:41:03;;;;;;;6.35;1.50;;;18.20;50.50;17.90;99124.00;;;;341150;28;86055;-92
2021/04/26 00:41:14;;;;;;;4.28;1.42;;;18.20;50.50;17.90;99128.00;;;;341006;28;95248;-92
2021/04/26 00:41:26;;;;;;;5.28;1.50;;;18.20;50.50;18.00;99133.00;;;;340392;28;84871;-92
2021/04/26 00:41:37;;;;;;;6.78;1.75;;;18.20;50.40;18.10;99134.00;;;;341086;28;96375;-92
2021/04/26 00:41:49;;;;;;;5.68;1.73;;;18.20;50.50;18.20;99136.00;;;;341478;28;85173;-91
2021/04/26 00:42:00;;;;;;;4.07;1.60;;;18.20;50.40;18.20;99130.00;;;;339622;28;98227;-91
2021/04/26 00:42:11;;;;;;;2.70;1.10;;;18.20;50.40;18.30;99138.00;;;;341926;28;83763;-92
2021/04/26 00:42:23;;;;;;;3.30;1.30;;;18.20;51.00;18.30;99125.00;;;;342474;28;94794;-92
2021/04/26 00:42:35;;;;;;;4.10;1.33;;;18.20;50.50;18.30;99131.00;;;;341895;28;83522;-93
2021/04/26 00:42:46;;;;;;;5.10;1.48;;;18.30;50.70;18.30;99132.00;;;;342647;28;93063;-91
2021/04/26 00:42:58;;;;;;;5.07;1.50;;;18.20;50.60;18.30;99134.00;;;;340532;28;84658;-93
2021/04/26 00:43:09;;;;;;;5.03;1.45;;;18.20;50.50;18.30;99126.00;;;;339724;28;96981;-92
2021/04/26 00:43:21;;;;;;;3.42;1.40;;;18.30;50.50;18.30;99118.00;;;;341883;28;84578;-91
2021/04/26 00:43:32;;;;;;;2.58;1.38;;;18.20;50.50;18.20;99132.00;;;;339920;28;95519;-92
2021/04/26 00:43:44;;;;;;;3.30;1.50;;;18.30;50.60;18.30;99129.00;;;;341726;28;85288;-91
2021/04/26 00:43:55;;;;;;;3.88;1.60;;;18.30;50.50;18.40;99118.00;;;;339735;28;97839;-93
2021/04/26 00:44:07;;;;;;;3.38;1.50;;;18.30;50.50;18.30;99130.00;;;;344022;28;84449;-92
2021/04/26 00:44:18;;;;;;;3.78;1.58;;;18.30;50.50;18.20;99131.00;;;;342400;28;96896;-92
2021/04/26 00:44:29;;;;;;;4.63;1.60;;;18.30;50.60;18.10;99122.00;;;;340386;28;84240;-92
2021/04/26 00:44:41;;;;;;;4.43;1.50;;;18.30;50.50;18.20;99126.00;;;;339875;28;95909;-92
2021/04/26 00:44:52;;;;;;;4.53;1.40;;;18.20;50.30;18.20;99132.00;;;;341928;28;84364;-93
2021/04/26 00:45:09;;;;;;;4.20;1.48;;;18.20;50.50;18.20;99128.00;;;;340847;28;97228;-90
2021/04/26 00:45:25;;;;;;;3.38;1.60;;;18.20;50.50;18.20;99132.00;;;;341388;28;85254;-91
2021/04/26 00:45:36;;;;;;;5.90;1.50;;;18.20;50.60;18.30;99129.00;;;;338274;28;95933;-92
2021/04/26 00:45:48;;;;;;;5.57;1.20;;;18.30;50.60;18.20;99129.00;;;;340419;28;83898;-92
2021/04/26 00:45:59;;;;;;;2.92;1.10;;;18.30;50.80;18.20;99132.00;;;;338344;28;97474;-91
2021/04/26 00:46:12;;;;;;;2.15;1.08;;;18.30;50.90;18.20;99130.00;;;;343047;28;83267;-92
2021/04/26 00:46:23;;;;;;;2.60;1.15;;;18.30;50.80;18.20;99118.00;;;;340979;28;97108;-92
2021/04/26 00:46:35;;;;;;;2.30;1.27;;;18.30;50.60;18.20;99128.00;;;;341760;28;84902;-91
2021/04/26 00:46:47;;;;;;;2.47;1.50;;;18.30;50.50;18.20;99131.00;;;;339745;28;96309;-93
2021/04/26 00:46:58;;;;;;;3.25;1.60;;;18.30;50.50;18.20;99131.00;;;;340274;28;85133;-92
2021/04/26 00:47:10;;;;;;;3.58;1.50;;;18.20;50.50;18.30;99127.00;;;;340723;28;95785;-92
2021/04/26 00:47:21;;;;;;;3.60;1.60;;;18.30;50.60;18.30;99136.00;;;;341535;28;83725;-92
2021/04/26 00:47:33;;;;;;;2.65;1.48;;;18.30;50.50;18.30;99128.00;;;;341478;28;96016;-92
2021/04/26 00:47:44;;;;;;;2.60;1.20;;;18.30;50.40;18.30;99126.00;;;;340379;28;84498;-92
2021/04/26 00:47:56;;;;;;;3.50;1.17;;;18.30;50.40;18.30;99125.00;;;;342325;28;96615;-92
2021/04/26 00:48:08;;;;;;;3.50;1.10;;;18.30;50.40;18.30;99125.00;;;;341779;28;84161;-92
2021/04/26 00:48:19;;;;;;;2.53;1.15;;;18.30;50.30;18.30;99129.00;;;;339596;28;97059;-93
2021/04/26 00:48:31;;;;;;;2.70;1.20;;;18.30;50.20;18.30;99121.00;;;;341820;28;83338;-92
2021/04/26 00:48:43;;;;;;;3.00;1.10;;;18.40;50.30;18.30;99120.00;;;;341105;28;96205;-92
2021/04/26 00:48:54;;;;;;;2.90;1.10;;;18.40;50.30;18.30;99132.00;;;;340495;28;82376;-91
2021/04/26 00:49:06;;;;;;;4.03;1.40;;;18.40;50.20;18.30;99126.00;;;;339650;28;96097;-93
2021/04/26 00:49:17;;;;;;;5.00;1.67;;;18.40;50.20;18.20;99128.00;;;;340349;28;85217;-92
2021/04/26 00:49:29;;;;;;;5.20;1.73;;;18.40;50.40;18.20;99131.00;;;;339681;28;96036;-92
2021/04/26 00:49:40;;;;;;;3.72;1.50;;;18.40;50.50;18.30;99122.00;;;;339086;28;83727;-92
2021/04/26 00:49:52;;;;;;;3.10;1.45;;;18.40;50.60;18.20;99124.00;;;;339582;28;98328;-92
2021/04/26 00:50:08;;;;;;;2.60;1.45;;;18.40;50.40;18.30;99126.00;;;;340846;28;83583;-92
2021/04/26 00:50:26;;;;;;;2.40;1.20;;;18.40;50.30;18.20;99129.00;;;;339199;28;97684;-91
2021/04/26 00:50:40;;;;;;;3.20;1.58;;;18.40;50.40;18.30;99124.00;;;;340389;28;84548;-92
2021/04/26 00:50:51;;;;;;;8.15;1.50;;;18.40;50.30;18.30;99130.00;;;;339676;28;96468;-93
2021/04/26 00:51:03;;;;;;;8.15;1.20;;;18.40;50.20;18.20;99120.00;;;;342873;28;83125;-91
2021/04/26 00:51:14;;;;;;;6.07;1.23;;;18.40;50.30;18.20;99129.00;;;;342016;28;97090;-92
2021/04/26 00:51:25;;;;;;;4.60;1.33;;;18.40;50.10;18.00;99120.00;;;;340296;28;85203;-92
2021/04/26 00:51:38;;;;;;;5.85;1.80;;;18.40;50.70;18.00;99123.00;;;;340974;28;96867;-92
2021/04/26 00:51:49;;;;;;;4.45;1.70;;;18.40;50.10;18.20;99125.00;;;;343261;28;83329;-91
2021/04/26 00:52:01;;;;;;;3.50;1.45;;;18.40;50.10;18.10;99121.00;;;;341060;28;94374;-92
2021/04/26 00:52:13;;;;;;;2.33;1.20;;;18.40;50.30;18.10;99126.00;;;;340321;28;84132;-92
2021/04/26 00:52:24;;;;;;;2.80;1.23;;;18.40;50.10;18.20;99129.00;;;;342416;28;96392;-93
2021/04/26 00:52:36;;;;;;;2.97;1.35;;;18.40;50.10;18.20;99128.00;;;;341806;28;83826;-92
2021/04/26 00:52:48;;;;;;;3.17;1.35;;;18.40;50.10;18.10;99125.00;;;;339776;28;95648;-92
2021/04/26 00:53:01;;;;;;;3.75;1.55;;;18.30;50.30;18.10;99126.00;;;;343456;28;84113;-92
2021/04/26 00:53:13;;;;;;;3.58;1.52;;;18.30;50.30;18.00;99126.00;;;;339543;28;96924;-92
2021/04/26 00:53:24;;;;;;;3.00;1.58;;;18.30;50.20;18.00;99126.00;;;;341658;28;84133;-92